Etusivu
METAR-TAF:

METAR-TAF

Lentoasemat :

Lontoo-Southend, Englanti

Leveyspiiri: 51-34N, Pituuspiiri: 000-42E, korkeus merenpinnasta: 15 m

Tämänhetkinen sää

Tämä raportti tehtiin 36 minuuttia sitten, kello 07.50 UTC
Tuuli 14 kn pohjoisen/luoteesta
Lämpötila 6°C
Kosteus 70%
Ilmanpaine 1029 hPa
Näkyvyys 10 km tai enemmän
ei pilviä alle 1500 m:ssä eikä cumulonimbus-pilviä

METAR: EGMC 250750Z 33014KT CAVOK 06/01 Q1029

Aika: 08:26 (08:26 UTC)

Sääennuste

Tämä raportti tehtiin 1 tunti ja 25 minuuttia sitten, kello 07.01 UTC
Ennuste voimassa 25. päivästä klo 06 UTC - 25. päivään klo 15 UTC
Tuuli 8 kn lännestä/luoteesta
Näkyvyys 10 km tai enemmän
Muutamia pilviä 4500 ft:n korkeudessa
Tulossa
25. päivästä klo 06 UTC - 25. päivään klo 09 UTC
Tuuli 14 kn pohjoisesta

TAF: EGMC 250701Z 2506/2515 30008KT 9999 FEW045 BECMG 2506/2509 36014KT

Säähavainnot ja -ennusteet yli 4000 lentoasemalta (METAR- ja TAF-raportit).

Käytössä olevat sääasemat on merkitty karttaan keltaisilla ja punaisilla pisteillä.

Aseta hiiri pisteen päälle nähdäksesi sääaseman nimen.

Klikkaa sitten nähdäksesi säähavainnot ja -ennusteet.

Kartan vaihtaminen: klikkaa mustalla rastilla varustettuja vihreitä pisteitä, niin voit zoomata sisään; viivalla varustettua vihreää pistettä, niin voit zoomata ulos tai vihreitä nuolia, niin pääset viereisille kartoille.


METAR-TAF: